createdAt,value
2023-04-09T00:00:23.939Z,2.47
2023-04-09T00:02:50.839Z,1.15
2023-04-09T00:05:17.866Z,1.80
2023-04-09T00:07:44.804Z,4.30
2023-04-09T00:10:11.868Z,5.63
2023-04-09T00:12:38.787Z,2.67
2023-04-09T00:15:06.384Z,1.23
2023-04-09T00:17:33.267Z,2.95
2023-04-09T00:20:00.422Z,4.13
2023-04-09T00:22:27.292Z,2.80
2023-04-09T00:24:54.120Z,5.70
2023-04-09T00:27:21.089Z,3.28
2023-04-09T00:29:47.937Z,3.67
2023-04-09T00:32:14.847Z,4.45
2023-04-09T00:34:41.785Z,1.65
2023-04-09T00:37:08.653Z,1.73
2023-04-09T00:39:35.427Z,5.57
2023-04-09T00:42:03.075Z,1.15
2023-04-09T00:44:30.762Z,2.65
2023-04-09T00:47:00.620Z,3.78
2023-04-09T00:49:27.922Z,3.00
2023-04-09T00:51:55.195Z,3.50
2023-04-09T00:54:22.153Z,2.75
2023-04-09T00:56:48.969Z,2.95
2023-04-09T00:59:16.223Z,7.03
2023-04-09T01:01:43.110Z,9.00
2023-04-09T01:04:10.362Z,4.90
2023-04-09T01:06:51.528Z,3.40
2023-04-09T01:09:33.666Z,6.25
2023-04-09T01:12:22.849Z,3.40
2023-04-09T01:15:07.134Z,2.25
2023-04-09T01:17:49.309Z,1.45
2023-04-09T01:20:48.051Z,4.15
2023-04-09T01:23:14.818Z,1.88
2023-04-09T01:26:03.266Z,1.48
2023-04-09T01:28:44.761Z,3.40
2023-04-09T01:31:14.884Z,1.85
2023-04-09T01:33:42.830Z,2.60
2023-04-09T01:36:10.781Z,1.95
2023-04-09T01:38:41.505Z,1.80
2023-04-09T01:41:12.096Z,1.02
2023-04-09T01:43:39.370Z,2.58
2023-04-09T01:46:06.219Z,2.97
2023-04-09T01:48:33.778Z,2.50
2023-04-09T01:51:01.412Z,1.40
2023-04-09T01:53:28.574Z,1.65
2023-04-09T01:55:58.667Z,1.40
2023-04-09T01:58:26.070Z,1.52
2023-04-09T02:00:59.980Z,2.60
2023-04-09T02:03:33.862Z,1.52
2023-04-09T02:06:10.280Z,2.78
2023-04-09T02:08:37.713Z,1.45
2023-04-09T02:11:06.758Z,1.23
2023-04-09T02:13:34.954Z,1.05
2023-04-09T02:16:04.392Z,1.88
2023-04-09T02:18:31.471Z,1.95
2023-04-09T02:20:59.412Z,2.45
2023-04-09T02:23:29.797Z,1.30
2023-04-09T02:25:56.826Z,1.38
2023-04-09T02:28:23.687Z,1.90
2023-04-09T02:30:51.789Z,1.50
2023-04-09T02:33:18.620Z,2.13
2023-04-09T02:35:45.556Z,1.02
2023-04-09T02:38:16.085Z,1.40
2023-04-09T02:40:43.266Z,2.35
2023-04-09T02:43:10.655Z,2.60
2023-04-09T02:45:37.944Z,1.85
2023-04-09T02:48:05.170Z,0.75
2023-04-09T02:50:35.311Z,1.83
2023-04-09T02:53:02.781Z,2.13
2023-04-09T02:55:29.742Z,2.35
2023-04-09T02:57:56.691Z,1.83
2023-04-09T03:00:23.476Z,1.30
2023-04-09T03:02:50.670Z,1.20
2023-04-09T03:05:17.592Z,1.42
2023-04-09T03:07:44.535Z,3.35
2023-04-09T03:10:11.468Z,5.93
2023-04-09T03:12:38.252Z,2.95
2023-04-09T03:15:05.825Z,1.27
2023-04-09T03:17:32.726Z,2.47
2023-04-09T03:19:59.696Z,1.10
2023-04-09T03:22:38.320Z,1.15
2023-04-09T03:25:12.006Z,2.70
2023-04-09T03:27:39.098Z,2.03
2023-04-09T03:30:06.514Z,4.53
2023-04-09T03:32:39.813Z,2.95
2023-04-09T03:35:08.277Z,2.33
2023-04-09T03:37:36.039Z,2.00
2023-04-09T03:40:03.920Z,2.15
2023-04-09T03:42:31.772Z,2.80
2023-04-09T03:44:58.839Z,3.15
2023-04-09T03:47:33.270Z,2.25
2023-04-09T03:50:00.499Z,1.95
2023-04-09T03:52:33.023Z,1.48
2023-04-09T03:55:07.022Z,2.03
2023-04-09T03:57:33.913Z,3.88
2023-04-09T04:00:01.427Z,1.70
2023-04-09T04:02:38.748Z,3.10
2023-04-09T04:05:08.643Z,1.83
2023-04-09T04:07:44.041Z,1.75
2023-04-09T04:10:15.430Z,3.55
2023-04-09T04:12:45.672Z,3.35
2023-04-09T04:15:20.122Z,1.38
2023-04-09T04:17:52.817Z,1.73
2023-04-09T04:20:41.104Z,2.28
2023-04-09T04:23:12.243Z,3.83
2023-04-09T04:25:47.483Z,1.48
2023-04-09T04:28:18.623Z,2.05
2023-04-09T04:30:46.020Z,9.13
2023-04-09T04:33:13.377Z,2.17
2023-04-09T04:35:52.534Z,7.43
2023-04-09T04:38:36.614Z,2.58
2023-04-09T04:41:07.914Z,2.78
2023-04-09T04:43:38.661Z,2.47
2023-04-09T04:46:06.292Z,1.50
2023-04-09T04:48:33.751Z,3.25
2023-04-09T04:51:02.049Z,5.82
2023-04-09T04:53:39.541Z,3.25
2023-04-09T04:56:14.806Z,2.00
2023-04-09T04:58:52.940Z,3.58
2023-04-09T05:01:20.923Z,4.90
2023-04-09T05:03:48.311Z,4.70
2023-04-09T05:06:29.744Z,5.15
2023-04-09T05:08:58.274Z,1.63
2023-04-09T05:11:28.095Z,3.70
2023-04-09T05:13:55.530Z,1.60
2023-04-09T05:16:23.502Z,1.60
2023-04-09T05:18:58.506Z,3.85
2023-04-09T05:21:25.831Z,1.38
2023-04-09T05:23:54.550Z,0.95
2023-04-09T05:26:22.646Z,2.13
2023-04-09T05:28:53.880Z,1.77
2023-04-09T05:31:22.579Z,1.35
2023-04-09T05:34:06.272Z,1.50
2023-04-09T05:36:40.149Z,2.35
2023-04-09T05:39:07.160Z,1.75
2023-04-09T05:41:34.018Z,1.35
2023-04-09T05:44:29.218Z,1.73
2023-04-09T05:47:05.440Z,1.15
2023-04-09T05:49:39.830Z,3.85
2023-04-09T05:52:10.968Z,1.58
2023-04-09T05:54:38.050Z,2.08
2023-04-09T05:57:07.448Z,1.77
2023-04-09T05:59:37.214Z,3.05
2023-04-09T06:02:04.099Z,3.90
2023-04-09T06:04:32.171Z,3.55
2023-04-09T06:07:00.510Z,2.42
2023-04-09T06:09:30.282Z,1.15
2023-04-09T06:11:57.835Z,4.82
2023-04-09T06:14:24.784Z,2.47
2023-04-09T06:16:51.579Z,2.08
2023-04-09T06:19:18.978Z,1.75
2023-04-09T06:21:46.081Z,1.27
2023-04-09T06:24:13.003Z,1.35
2023-04-09T06:26:39.950Z,1.30
2023-04-09T06:29:07.018Z,3.38
2023-04-09T06:31:34.457Z,5.00
2023-04-09T06:34:01.427Z,3.42
2023-04-09T06:36:28.346Z,1.92
2023-04-09T06:38:55.437Z,2.67
2023-04-09T06:41:23.335Z,6.18
2023-04-09T06:43:50.658Z,1.67
2023-04-09T06:46:20.204Z,2.97
2023-04-09T06:48:47.695Z,2.13
2023-04-09T06:51:15.075Z,4.53
2023-04-09T06:53:42.396Z,2.03
2023-04-09T06:56:09.643Z,1.77
2023-04-09T06:58:36.794Z,1.15
2023-04-09T07:01:03.888Z,2.63
2023-04-09T07:03:31.152Z,2.67
2023-04-09T07:05:58.914Z,2.20
2023-04-09T07:08:25.994Z,2.53
2023-04-09T07:10:52.910Z,6.78
2023-04-09T07:13:19.820Z,4.88
2023-04-09T07:15:46.638Z,1.95
2023-04-09T07:18:13.457Z,2.05
2023-04-09T07:20:40.257Z,3.10
2023-04-09T07:23:07.103Z,4.43
2023-04-09T07:25:34.049Z,1.85
2023-04-09T07:28:00.906Z,1.63
2023-04-09T07:30:27.740Z,1.80
2023-04-09T07:32:55.155Z,2.67
2023-04-09T07:35:22.130Z,3.63
2023-04-09T07:37:49.046Z,3.90
2023-04-09T07:40:16.227Z,5.60
2023-04-09T07:42:43.056Z,1.90
2023-04-09T07:45:10.208Z,2.28
2023-04-09T07:47:38.300Z,1.83
2023-04-09T07:50:06.011Z,1.50
2023-04-09T07:52:32.853Z,8.52
2023-04-09T07:54:59.673Z,2.60
2023-04-09T07:57:27.598Z,5.30
2023-04-09T07:59:55.502Z,2.78
2023-04-09T08:02:23.926Z,2.78
2023-04-09T08:04:51.251Z,1.95
2023-04-09T08:07:18.212Z,1.73
2023-04-09T08:09:45.046Z,5.88
2023-04-09T08:12:11.905Z,2.17
2023-04-09T08:14:38.790Z,3.80
2023-04-09T08:17:05.808Z,3.15
2023-04-09T08:19:32.796Z,5.47
2023-04-09T08:21:59.664Z,2.55
2023-04-09T08:24:26.686Z,2.97
2023-04-09T08:26:54.500Z,2.10
2023-04-09T08:29:21.460Z,3.13
2023-04-09T08:31:48.545Z,3.08
2023-04-09T08:34:17.385Z,2.45
2023-04-09T08:36:47.709Z,2.90
2023-04-09T08:41:44.299Z,1.80
2023-04-09T08:44:11.447Z,1.50
2023-04-09T08:46:38.321Z,1.70
2023-04-09T08:49:05.220Z,3.30
2023-04-09T08:51:32.034Z,2.08
2023-04-09T08:54:03.704Z,3.88
2023-04-09T08:56:31.428Z,3.20
2023-04-09T08:58:58.669Z,3.28
2023-04-09T09:01:33.297Z,2.05
2023-04-09T09:04:08.657Z,2.13
2023-04-09T09:06:36.528Z,4.13
2023-04-09T09:09:08.709Z,1.42
2023-04-09T09:11:50.989Z,3.42
2023-04-09T09:14:21.050Z,2.22
2023-04-09T09:16:57.675Z,5.53
2023-04-09T09:19:24.687Z,3.38
2023-04-09T09:21:59.288Z,3.05
2023-04-09T09:24:26.534Z,4.72
2023-04-09T09:26:58.795Z,1.83
2023-04-09T09:29:26.232Z,2.70
2023-04-09T09:31:54.933Z,1.30
2023-04-09T09:34:23.728Z,2.13
2023-04-09T09:36:50.661Z,3.13
2023-04-09T09:39:17.984Z,2.05
2023-04-09T09:41:46.133Z,2.20
2023-04-09T09:44:30.433Z,3.65
2023-04-09T09:46:58.642Z,3.33
2023-04-09T09:49:25.463Z,1.88
2023-04-09T09:51:55.609Z,3.67
2023-04-09T09:54:25.498Z,5.72
2023-04-09T09:56:55.893Z,3.13
2023-04-09T09:59:31.009Z,2.83
2023-04-09T10:02:04.440Z,4.10
2023-04-09T10:04:38.172Z,4.95
2023-04-09T10:07:07.016Z,5.65
2023-04-09T10:09:39.688Z,2.20
2023-04-09T10:12:08.768Z,3.00
2023-04-09T10:14:36.410Z,3.88
2023-04-09T10:17:04.397Z,2.28
2023-04-09T10:19:33.350Z,9.35
2023-04-09T10:22:09.826Z,2.67
2023-04-09T10:24:36.964Z,3.60
2023-04-09T10:27:16.724Z,2.80
2023-04-09T10:29:48.510Z,1.90
2023-04-09T10:32:28.314Z,2.75
2023-04-09T10:34:59.525Z,3.58
2023-04-09T10:37:28.031Z,3.63
2023-04-09T10:39:55.144Z,4.40
2023-04-09T10:42:35.689Z,7.53
2023-04-09T10:45:14.440Z,4.47
2023-04-09T10:47:43.430Z,7.88
2023-04-09T10:50:21.590Z,2.85
2023-04-09T10:52:53.792Z,4.40
2023-04-09T10:55:41.845Z,4.30
2023-04-09T10:58:13.621Z,6.43
2023-04-09T11:00:45.563Z,3.22
2023-04-09T11:03:15.536Z,6.20
2023-04-09T11:05:44.393Z,6.22
2023-04-09T11:08:12.911Z,4.45
2023-04-09T11:10:42.063Z,6.38
2023-04-09T11:13:13.620Z,4.80
2023-04-09T11:15:41.201Z,6.63
2023-04-09T11:18:09.925Z,4.28
2023-04-09T11:20:37.036Z,3.40
2023-04-09T11:23:03.927Z,3.28
2023-04-09T11:25:32.959Z,4.45
2023-04-09T11:28:02.485Z,3.63
2023-04-09T11:30:29.335Z,6.90
2023-04-09T11:32:56.331Z,5.90
2023-04-09T11:35:23.867Z,5.68
2023-04-09T11:37:52.290Z,5.00
2023-04-09T11:40:20.275Z,3.85
2023-04-09T11:42:49.937Z,3.45
2023-04-09T11:45:18.101Z,2.55
2023-04-09T11:47:46.606Z,6.05
2023-04-09T11:50:15.562Z,4.35
2023-04-09T11:52:43.403Z,5.28
2023-04-09T11:55:10.909Z,8.77
2023-04-09T11:57:43.012Z,3.10
2023-04-09T12:00:20.322Z,3.67
2023-04-09T12:02:51.611Z,5.32
2023-04-09T12:05:23.617Z,3.13
2023-04-09T12:07:56.208Z,7.97
2023-04-09T12:10:27.997Z,4.43
2023-04-09T12:12:55.242Z,7.13
2023-04-09T12:15:24.293Z,3.00
2023-04-09T12:17:55.944Z,5.38
2023-04-09T12:20:46.606Z,5.03
2023-04-09T12:23:14.391Z,7.78
2023-04-09T12:25:43.334Z,6.22
2023-04-09T12:28:13.777Z,7.45
2023-04-09T12:33:10.296Z,6.35
2023-04-09T12:35:38.118Z,3.20
2023-04-09T12:38:05.370Z,3.92
2023-04-09T12:40:32.234Z,3.50
2023-04-09T12:42:59.189Z,4.70
2023-04-09T12:45:26.392Z,2.97
2023-04-09T12:47:53.494Z,4.40
2023-04-09T12:50:20.458Z,3.78
2023-04-09T12:52:47.482Z,2.97
2023-04-09T12:55:15.065Z,4.85
2023-04-09T12:57:47.343Z,3.38
2023-04-09T13:00:14.982Z,5.20
2023-04-09T13:02:42.346Z,4.47
2023-04-09T13:05:09.472Z,4.22
2023-04-09T13:07:36.354Z,2.63
2023-04-09T13:10:03.611Z,4.32
2023-04-09T13:12:30.624Z,3.60
2023-04-09T13:14:59.080Z,2.78
2023-04-09T13:17:26.153Z,2.80
2023-04-09T13:19:53.630Z,4.43
2023-04-09T13:22:20.597Z,7.72
2023-04-09T13:24:47.404Z,6.72
2023-04-09T13:27:14.811Z,4.50
2023-04-09T13:29:41.616Z,5.93
2023-04-09T13:32:10.615Z,6.25
2023-04-09T13:34:39.669Z,7.55
2023-04-09T13:37:07.142Z,4.60
2023-04-09T13:39:34.130Z,4.65
2023-04-09T13:42:07.247Z,5.28
2023-04-09T13:44:42.321Z,7.38
2023-04-09T13:47:11.250Z,6.47
2023-04-09T13:49:38.510Z,6.57
2023-04-09T13:52:05.898Z,4.22
2023-04-09T13:54:33.732Z,11.07
2023-04-09T13:57:00.929Z,8.02
2023-04-09T13:59:27.879Z,5.55
2023-04-09T14:01:54.837Z,6.00
2023-04-09T14:04:21.911Z,11.52
2023-04-09T14:06:48.740Z,5.72
2023-04-09T14:09:16.203Z,10.55
2023-04-09T14:11:43.002Z,5.93
2023-04-09T14:14:10.709Z,8.82
2023-04-09T14:16:37.623Z,5.97
2023-04-09T14:19:04.523Z,6.57
2023-04-09T14:21:32.036Z,6.28
2023-04-09T14:23:58.975Z,6.13
2023-04-09T14:26:26.758Z,6.15
2023-04-09T14:28:53.856Z,10.25
2023-04-09T14:31:21.550Z,6.32
2023-04-09T14:33:49.009Z,5.80
2023-04-09T14:36:16.659Z,5.50
2023-04-09T14:38:43.679Z,9.88
2023-04-09T14:41:10.537Z,8.52
2023-04-09T14:43:37.420Z,6.00
2023-04-09T14:46:06.394Z,7.15
2023-04-09T14:48:33.362Z,7.60
2023-04-09T14:51:00.237Z,7.43
2023-04-09T14:53:27.009Z,6.47
2023-04-09T14:55:53.823Z,5.10
2023-04-09T14:58:20.849Z,5.32
2023-04-09T15:00:47.751Z,6.68
2023-04-09T15:03:14.978Z,7.88
2023-04-09T15:05:41.923Z,5.68
2023-04-09T15:08:08.727Z,7.28
2023-04-09T15:10:37.044Z,7.47
2023-04-09T15:13:04.008Z,7.38
2023-04-09T15:15:31.233Z,4.55
2023-04-09T15:17:58.146Z,4.50
2023-04-09T15:20:24.981Z,6.65
2023-04-09T15:22:51.824Z,5.85
2023-04-09T15:25:18.712Z,10.73
2023-04-09T15:27:46.897Z,6.50
2023-04-09T15:30:13.793Z,13.68
2023-04-09T15:32:40.810Z,3.33
2023-04-09T15:35:08.283Z,7.32
2023-04-09T15:37:35.416Z,9.18
2023-04-09T15:40:03.915Z,4.72
2023-04-09T15:42:30.819Z,10.80
2023-04-09T15:44:57.590Z,4.07
2023-04-09T15:47:24.417Z,4.32
2023-04-09T15:49:51.467Z,7.32
2023-04-09T15:52:18.293Z,6.82
2023-04-09T15:54:45.236Z,8.07
2023-04-09T15:57:12.047Z,4.18
2023-04-09T15:59:38.912Z,7.35
2023-04-09T16:02:06.085Z,7.18
2023-04-09T16:04:32.931Z,4.53
2023-04-09T16:06:59.908Z,3.67
2023-04-09T16:09:26.679Z,4.28
2023-04-09T16:11:53.538Z,5.85
2023-04-09T16:14:20.442Z,5.10
2023-04-09T16:16:49.910Z,4.10
2023-04-09T16:19:17.834Z,5.20
2023-04-09T16:21:45.604Z,6.50
2023-04-09T16:24:13.188Z,5.15
2023-04-09T16:26:44.102Z,10.77
2023-04-09T16:29:11.512Z,6.15
2023-04-09T16:31:39.336Z,7.32
2023-04-09T16:34:06.160Z,6.47
2023-04-09T16:36:36.865Z,6.60
2023-04-09T16:39:06.697Z,8.27
2023-04-09T16:41:34.983Z,10.65
2023-04-09T16:44:04.086Z,7.38
2023-04-09T16:46:31.283Z,9.98
2023-04-09T16:48:58.122Z,8.18
2023-04-09T16:51:25.011Z,7.63
2023-04-09T16:53:51.903Z,11.75
2023-04-09T16:56:18.850Z,8.63
2023-04-09T16:58:46.585Z,6.63
2023-04-09T17:01:13.479Z,9.50
2023-04-09T17:03:40.437Z,7.95
2023-04-09T17:06:07.398Z,6.72
2023-04-09T17:08:35.307Z,6.07
2023-04-09T17:11:02.507Z,5.90
2023-04-09T17:13:31.679Z,9.48
2023-04-09T17:15:58.593Z,8.32
2023-04-09T17:18:25.562Z,13.15
2023-04-09T17:20:52.645Z,5.75
2023-04-09T17:23:19.582Z,6.78
2023-04-09T17:25:47.152Z,8.32
2023-04-09T17:28:14.255Z,13.98
2023-04-09T17:30:42.830Z,5.50
2023-04-09T17:33:09.845Z,11.55
2023-04-09T17:35:36.645Z,7.28
2023-04-09T17:38:03.705Z,9.25
2023-04-09T17:40:30.729Z,13.05
2023-04-09T17:42:57.570Z,8.60
2023-04-09T17:45:24.521Z,10.80
2023-04-09T17:47:51.353Z,11.70
2023-04-09T17:50:18.302Z,9.00
2023-04-09T17:52:45.196Z,13.05
2023-04-09T17:55:13.002Z,6.88
2023-04-09T17:57:40.904Z,10.85
2023-04-09T18:00:08.796Z,8.20
2023-04-09T18:02:46.086Z,8.60
2023-04-09T18:05:13.178Z,6.55
2023-04-09T18:07:40.072Z,5.93
2023-04-09T18:10:07.200Z,8.93
2023-04-09T18:12:34.017Z,9.77
2023-04-09T18:15:00.848Z,10.13
2023-04-09T18:17:27.682Z,7.40
2023-04-09T18:19:58.214Z,6.03
2023-04-09T18:22:26.139Z,7.30
2023-04-09T18:24:53.196Z,5.85
2023-04-09T18:27:21.275Z,6.93
2023-04-09T18:29:50.958Z,8.25
2023-04-09T18:32:19.606Z,8.57
2023-04-09T18:34:47.717Z,6.15
2023-04-09T18:37:15.266Z,5.18
2023-04-09T18:39:42.133Z,5.63
2023-04-09T18:42:09.087Z,6.70
2023-04-09T18:44:38.960Z,7.15
2023-04-09T18:47:09.111Z,8.43
2023-04-09T18:49:36.800Z,6.22
2023-04-09T18:52:06.138Z,9.70
2023-04-09T18:54:35.006Z,6.68
2023-04-09T18:57:04.180Z,6.65
2023-04-09T18:59:35.122Z,9.85
2023-04-09T19:02:06.049Z,5.80
2023-04-09T19:04:39.824Z,8.95
2023-04-09T19:07:07.332Z,12.48
2023-04-09T19:09:34.743Z,9.60
2023-04-09T19:12:02.009Z,5.25
2023-04-09T19:14:28.998Z,7.07
2023-04-09T19:16:55.846Z,5.68
2023-04-09T19:19:23.362Z,8.13
2023-04-09T19:21:50.212Z,5.38
2023-04-09T19:24:17.023Z,8.48
2023-04-09T19:26:43.841Z,9.10
2023-04-09T19:29:10.787Z,9.32
2023-04-09T19:31:37.827Z,7.13
2023-04-09T19:34:06.282Z,7.10
2023-04-09T19:36:33.986Z,6.10
2023-04-09T19:39:01.185Z,8.77
2023-04-09T19:41:28.066Z,9.15
2023-04-09T19:43:55.054Z,16.48
2023-04-09T19:46:21.955Z,10.88
2023-04-09T19:48:48.904Z,5.20
2023-04-09T19:51:20.070Z,12.32
2023-04-09T19:53:47.909Z,8.98
2023-04-09T19:56:15.059Z,12.43
2023-04-09T19:58:43.434Z,7.50
2023-04-09T20:01:10.537Z,6.70
2023-04-09T20:03:37.511Z,7.15
2023-04-09T20:06:09.371Z,4.93
2023-04-09T20:08:37.839Z,8.00
2023-04-09T20:11:05.010Z,8.63
2023-04-09T20:13:31.790Z,7.60
2023-04-09T20:15:58.716Z,5.15
2023-04-09T20:18:25.814Z,9.13
2023-04-09T20:20:53.212Z,9.25
2023-04-09T20:23:20.075Z,6.20
2023-04-09T20:25:46.880Z,5.25
2023-04-09T20:28:13.683Z,7.78
2023-04-09T20:30:40.511Z,5.85
2023-04-09T20:33:07.498Z,7.05
2023-04-09T20:35:36.270Z,7.97
2023-04-09T20:38:03.304Z,5.57
2023-04-09T20:40:31.955Z,10.48
2023-04-09T20:42:59.475Z,8.50
2023-04-09T20:45:26.337Z,8.98
2023-04-09T20:47:53.343Z,7.32
2023-04-09T20:50:20.265Z,7.32
2023-04-09T20:52:47.627Z,8.13
2023-04-09T20:55:14.634Z,5.13
2023-04-09T20:57:41.563Z,12.13
2023-04-09T21:00:08.971Z,7.00
2023-04-09T21:02:35.933Z,6.78
2023-04-09T21:05:11.663Z,10.98
2023-04-09T21:07:46.272Z,11.85
2023-04-09T21:10:13.277Z,9.75
2023-04-09T21:12:40.350Z,8.60
2023-04-09T21:15:07.765Z,9.23
2023-04-09T21:17:34.658Z,10.18
2023-04-09T21:20:01.599Z,5.53
2023-04-09T21:22:28.475Z,10.55
2023-04-09T21:24:56.265Z,10.82
2023-04-09T21:27:23.219Z,5.72
2023-04-09T21:29:49.999Z,7.75
2023-04-09T21:32:17.465Z,9.93
2023-04-09T21:34:44.240Z,7.10
2023-04-09T21:37:11.096Z,7.85
2023-04-09T21:39:38.528Z,8.75
2023-04-09T21:42:07.190Z,7.82
2023-04-09T21:44:34.176Z,9.93
2023-04-09T21:47:01.716Z,5.70
2023-04-09T21:49:28.581Z,7.60
2023-04-09T21:51:55.782Z,8.82
2023-04-09T21:54:22.598Z,5.88
2023-04-09T21:56:49.418Z,9.13
2023-04-09T21:59:16.269Z,8.02
2023-04-09T22:01:43.093Z,6.75
2023-04-09T22:04:10.172Z,10.73
2023-04-09T22:06:37.076Z,6.60
2023-04-09T22:09:04.337Z,12.23
2023-04-09T22:11:31.548Z,11.63
2023-04-09T22:13:58.663Z,10.27
2023-04-09T22:16:26.387Z,11.10
2023-04-09T22:18:54.449Z,7.13
2023-04-09T22:21:22.762Z,8.52
2023-04-09T22:23:49.580Z,9.23
2023-04-09T22:26:16.894Z,8.45
2023-04-09T22:28:43.710Z,7.10
2023-04-09T22:31:10.530Z,11.13
2023-04-09T22:33:37.349Z,9.93
2023-04-09T22:36:04.357Z,8.85
2023-04-09T22:38:31.270Z,11.20
2023-04-09T22:40:58.131Z,9.20
2023-04-09T22:43:24.950Z,11.45
2023-04-09T22:45:54.971Z,8.63
2023-04-09T22:48:22.826Z,11.15
2023-04-09T22:50:50.436Z,9.07
2023-04-09T22:53:21.759Z,10.70
2023-04-09T22:55:51.250Z,8.32
2023-04-09T22:58:18.832Z,10.43
2023-04-09T23:00:47.132Z,9.77
2023-04-09T23:03:14.150Z,11.95
2023-04-09T23:05:41.255Z,10.77
2023-04-09T23:08:08.164Z,9.43
2023-04-09T23:10:35.844Z,8.75
2023-04-09T23:13:02.861Z,13.60
2023-04-09T23:15:29.689Z,8.23
2023-04-09T23:17:56.751Z,10.73
2023-04-09T23:20:23.894Z,9.18
2023-04-09T23:22:51.114Z,8.98
2023-04-09T23:25:18.164Z,15.50
2023-04-09T23:27:46.594Z,13.05
2023-04-09T23:30:16.990Z,11.48
2023-04-09T23:32:51.649Z,9.13
2023-04-09T23:35:20.367Z,9.18
2023-04-09T23:37:48.952Z,11.43
2023-04-09T23:40:18.036Z,11.80
2023-04-09T23:42:45.764Z,10.80
2023-04-09T23:45:12.580Z,12.43
2023-04-09T23:47:39.450Z,12.45
2023-04-09T23:50:07.927Z,15.63
2023-04-09T23:52:38.749Z,15.93
2023-04-09T23:55:09.556Z,12.30
2023-04-09T23:57:36.459Z,11.05
